createdAt,value
2023-01-29T00:01:58.718Z,1.40
2023-01-29T00:04:27.917Z,1.40
2023-01-29T00:06:57.133Z,1.40
2023-01-29T00:09:23.910Z,1.50
2023-01-29T00:11:50.822Z,1.40
2023-01-29T00:14:18.049Z,1.40
2023-01-29T00:16:44.885Z,1.40
2023-01-29T00:19:11.650Z,1.40
2023-01-29T00:21:38.337Z,1.40
2023-01-29T00:24:05.347Z,1.40
2023-01-29T00:26:32.138Z,1.40
2023-01-29T00:29:00.509Z,1.40
2023-01-29T00:31:27.696Z,1.40
2023-01-29T00:33:54.732Z,1.40
2023-01-29T00:36:22.002Z,1.40
2023-01-29T00:38:58.829Z,1.40
2023-01-29T00:41:52.964Z,1.50
2023-01-29T00:44:38.564Z,1.40
2023-01-29T00:47:25.350Z,1.50
2023-01-29T00:49:52.158Z,1.50
2023-01-29T00:52:24.879Z,1.50
2023-01-29T00:54:52.407Z,1.50
2023-01-29T00:57:19.480Z,1.50
2023-01-29T00:59:46.217Z,1.50
2023-01-29T01:02:31.629Z,1.50
2023-01-29T01:04:58.411Z,1.50
2023-01-29T01:07:25.150Z,1.50
2023-01-29T01:10:10.505Z,1.50
2023-01-29T01:12:37.257Z,1.50
2023-01-29T01:15:04.367Z,1.50
2023-01-29T01:17:31.442Z,1.50
2023-01-29T01:19:58.368Z,1.50
2023-01-29T01:22:25.244Z,1.50
2023-01-29T01:24:51.963Z,1.50
2023-01-29T01:27:21.147Z,1.60
2023-01-29T01:29:47.980Z,1.50
2023-01-29T01:32:15.839Z,1.60
2023-01-29T01:34:45.208Z,1.60
2023-01-29T01:37:14.120Z,1.60
2023-01-29T01:39:40.850Z,1.60
2023-01-29T01:42:12.753Z,1.60
2023-01-29T01:44:55.825Z,1.60
2023-01-29T01:47:26.606Z,1.60
2023-01-29T01:49:55.980Z,1.60
2023-01-29T01:52:23.055Z,1.60
2023-01-29T01:54:51.159Z,1.60
2023-01-29T01:57:24.827Z,1.60
2023-01-29T02:00:00.819Z,1.60
2023-01-29T02:02:46.380Z,1.60
2023-01-29T02:05:32.320Z,1.60
2023-01-29T02:08:17.935Z,1.60
2023-01-29T02:10:46.620Z,1.60
2023-01-29T02:13:16.060Z,1.60
2023-01-29T02:15:52.552Z,1.60
2023-01-29T02:18:21.084Z,1.60
2023-01-29T02:21:06.749Z,1.60
2023-01-29T02:23:47.861Z,1.60
2023-01-29T02:26:32.084Z,1.60
2023-01-29T02:29:22.340Z,1.60
2023-01-29T02:32:08.930Z,1.60
2023-01-29T02:35:11.534Z,1.60
2023-01-29T02:37:45.477Z,1.60
2023-01-29T02:40:21.135Z,1.60
2023-01-29T02:43:01.017Z,1.60
2023-01-29T02:45:33.491Z,1.60
2023-01-29T02:48:01.804Z,1.60
2023-01-29T02:50:28.448Z,1.60
2023-01-29T02:53:04.227Z,1.60
2023-01-29T02:55:39.898Z,1.60
2023-01-29T02:58:12.752Z,1.60
2023-01-29T03:00:44.902Z,1.60
2023-01-29T03:03:23.506Z,1.60
2023-01-29T03:06:12.009Z,1.60
2023-01-29T03:08:45.352Z,1.60
2023-01-29T03:11:15.738Z,1.60
2023-01-29T03:13:45.786Z,1.60
2023-01-29T03:16:27.177Z,1.60
2023-01-29T03:18:58.900Z,1.60
2023-01-29T03:21:49.204Z,1.60
2023-01-29T03:24:36.156Z,1.60
2023-01-29T03:27:24.735Z,1.60
2023-01-29T03:30:14.704Z,1.60
2023-01-29T03:32:49.229Z,1.60
2023-01-29T03:35:21.048Z,1.60
2023-01-29T03:37:51.477Z,1.60
2023-01-29T03:40:18.754Z,1.60
2023-01-29T03:42:46.038Z,1.70
2023-01-29T03:45:12.796Z,1.70
2023-01-29T03:47:43.083Z,1.70
2023-01-29T03:50:21.181Z,1.70
2023-01-29T03:53:00.842Z,1.70
2023-01-29T03:55:27.882Z,1.70
2023-01-29T03:57:57.442Z,1.70
2023-01-29T04:04:23.558Z,1.70
2023-01-29T04:06:53.085Z,1.60
2023-01-29T04:09:23.399Z,1.60
2023-01-29T04:11:57.344Z,1.70
2023-01-29T04:14:26.600Z,1.70
2023-01-29T04:16:55.880Z,1.60
2023-01-29T04:19:30.294Z,1.70
2023-01-29T04:22:03.214Z,1.70
2023-01-29T04:24:32.630Z,1.60
2023-01-29T04:27:03.588Z,1.70
2023-01-29T04:29:49.107Z,1.70
2023-01-29T04:40:00.176Z,1.60
2023-01-29T04:42:31.099Z,1.60
2023-01-29T04:45:18.076Z,1.60
2023-01-29T04:47:53.439Z,1.60
2023-01-29T04:50:26.332Z,1.60
2023-01-29T04:52:57.591Z,1.60
2023-01-29T04:55:38.964Z,1.60
2023-01-29T04:58:12.753Z,1.60
2023-01-29T05:00:43.608Z,1.60
2023-01-29T05:03:16.297Z,1.70
2023-01-29T05:05:48.798Z,1.70
2023-01-29T05:08:19.338Z,1.60
2023-01-29T05:10:51.428Z,1.70
2023-01-29T05:13:18.893Z,1.70
2023-01-29T05:15:57.633Z,1.70
2023-01-29T05:18:24.515Z,1.70
2023-01-29T05:20:51.611Z,1.70
2023-01-29T05:23:21.225Z,1.70
2023-01-29T05:25:48.947Z,1.70
2023-01-29T05:28:18.692Z,1.70
2023-01-29T05:30:50.073Z,1.70
2023-01-29T05:33:23.629Z,1.80
2023-01-29T05:35:52.752Z,1.70
2023-01-29T05:38:19.618Z,1.70
2023-01-29T05:40:48.696Z,1.70
2023-01-29T05:43:16.743Z,1.70
2023-01-29T05:45:43.981Z,1.70
2023-01-29T05:48:10.695Z,1.80
2023-01-29T05:50:37.408Z,1.80
2023-01-29T05:53:04.185Z,1.80
2023-01-29T05:55:33.374Z,1.80
2023-01-29T05:58:00.114Z,1.80
2023-01-29T06:00:26.850Z,1.80
2023-01-29T06:02:56.530Z,1.80
2023-01-29T06:05:25.937Z,1.80
2023-01-29T06:07:52.693Z,1.90
2023-01-29T06:10:21.820Z,1.80
2023-01-29T06:12:51.047Z,1.80
2023-01-29T06:15:20.325Z,1.80
2023-01-29T06:17:49.102Z,1.80
2023-01-29T06:20:16.276Z,1.80
2023-01-29T06:22:43.228Z,1.90
2023-01-29T06:25:10.014Z,1.90
2023-01-29T06:27:36.839Z,1.90
2023-01-29T06:30:06.514Z,1.90
2023-01-29T06:32:35.487Z,2.00
2023-01-29T06:35:04.647Z,2.00
2023-01-29T06:37:31.423Z,1.90
2023-01-29T06:40:00.512Z,1.90
2023-01-29T06:42:28.067Z,1.90
2023-01-29T06:44:55.258Z,1.90
2023-01-29T06:47:22.227Z,1.90
2023-01-29T06:49:49.312Z,1.90
2023-01-29T06:52:18.840Z,1.90
2023-01-29T06:54:45.613Z,2.00
2023-01-29T06:57:12.378Z,2.00
2023-01-29T06:59:39.134Z,2.00
2023-01-29T07:02:05.850Z,2.00
2023-01-29T07:04:32.583Z,2.00
2023-01-29T07:06:59.839Z,2.00
2023-01-29T07:09:26.583Z,2.00
2023-01-29T07:11:53.313Z,2.00
2023-01-29T07:14:20.164Z,2.10
2023-01-29T07:16:46.871Z,2.00
2023-01-29T07:19:13.736Z,2.00
2023-01-29T07:21:45.418Z,2.10
2023-01-29T07:24:12.251Z,2.10
2023-01-29T07:26:39.006Z,2.10
2023-01-29T07:29:05.790Z,2.10
2023-01-29T07:31:32.648Z,2.10
2023-01-29T07:34:02.104Z,2.00
2023-01-29T07:36:31.064Z,2.00
2023-01-29T07:38:57.845Z,2.10
2023-01-29T07:41:24.576Z,2.10
2023-01-29T07:43:51.298Z,2.10
2023-01-29T07:46:20.280Z,2.10
2023-01-29T07:48:47.024Z,2.10
2023-01-29T07:51:13.813Z,2.10
2023-01-29T07:53:40.651Z,2.10
2023-01-29T07:56:07.563Z,2.10
2023-01-29T07:58:36.651Z,2.10
2023-01-29T08:01:07.754Z,2.10
2023-01-29T08:03:34.868Z,2.10
2023-01-29T08:06:02.629Z,2.10
2023-01-29T08:08:31.540Z,2.10
2023-01-29T08:11:00.805Z,2.10
2023-01-29T08:13:30.008Z,2.10
2023-01-29T08:16:03.275Z,2.10
2023-01-29T08:18:31.473Z,2.10
2023-01-29T08:21:01.923Z,2.10
2023-01-29T08:23:28.741Z,2.10
2023-01-29T08:25:57.631Z,2.10
2023-01-29T08:28:24.413Z,2.10
2023-01-29T08:30:55.878Z,2.10
2023-01-29T08:33:29.753Z,2.10
2023-01-29T08:36:00.285Z,2.10
2023-01-29T08:38:27.029Z,2.10
2023-01-29T08:41:13.128Z,2.20
2023-01-29T08:43:41.999Z,2.20
2023-01-29T08:46:08.812Z,2.20
2023-01-29T08:48:38.660Z,2.20
2023-01-29T08:51:08.009Z,2.20
2023-01-29T08:53:37.246Z,2.20
2023-01-29T08:56:08.110Z,2.20
2023-01-29T08:58:34.842Z,2.20
2023-01-29T09:01:12.034Z,2.30
2023-01-29T09:03:43.699Z,2.20
2023-01-29T09:10:06.036Z,2.30
2023-01-29T09:12:32.748Z,2.30
2023-01-29T09:14:59.732Z,2.40
2023-01-29T09:17:26.593Z,2.40
2023-01-29T09:19:55.915Z,2.40
2023-01-29T09:22:22.611Z,2.40
2023-01-29T09:24:49.357Z,2.50
2023-01-29T09:27:16.070Z,2.50
2023-01-29T09:29:45.238Z,2.50
2023-01-29T09:32:11.940Z,2.50
2023-01-29T09:34:41.140Z,2.60
2023-01-29T09:37:08.112Z,2.60
2023-01-29T09:39:34.903Z,2.60
2023-01-29T09:42:01.567Z,2.60
2023-01-29T09:44:30.462Z,2.70
2023-01-29T09:47:04.162Z,2.70
2023-01-29T09:49:33.009Z,2.70
2023-01-29T09:52:05.055Z,2.70
2023-01-29T09:54:41.082Z,2.80
2023-01-29T09:57:12.846Z,2.90
2023-01-29T09:59:39.571Z,2.90
2023-01-29T10:02:14.336Z,3.00
2023-01-29T10:05:10.921Z,3.10
2023-01-29T10:07:50.109Z,3.10
2023-01-29T10:10:26.898Z,3.20
2023-01-29T10:13:19.245Z,3.30
2023-01-29T10:16:01.979Z,3.30
2023-01-29T10:18:56.964Z,3.40
2023-01-29T10:21:57.596Z,3.30
2023-01-29T10:24:38.206Z,3.30
2023-01-29T10:27:16.773Z,3.30
2023-01-29T10:29:45.482Z,3.30
2023-01-29T10:32:17.812Z,3.40
2023-01-29T10:35:13.024Z,3.50
2023-01-29T10:37:41.863Z,3.60
2023-01-29T10:40:33.010Z,3.60
2023-01-29T10:43:24.650Z,3.70
2023-01-29T10:46:16.825Z,3.80
2023-01-29T10:49:17.574Z,3.90
2023-01-29T10:52:19.917Z,4.00
2023-01-29T10:55:01.646Z,4.10
2023-01-29T10:57:34.522Z,4.30
2023-01-29T11:00:13.485Z,4.20
2023-01-29T11:02:45.806Z,4.30
2023-01-29T11:05:39.283Z,4.30
2023-01-29T11:08:13.413Z,4.40
2023-01-29T11:11:14.639Z,4.40
2023-01-29T11:14:07.016Z,4.40
2023-01-29T11:16:45.697Z,4.40
2023-01-29T11:19:13.176Z,4.50
2023-01-29T11:21:52.395Z,4.40
2023-01-29T11:24:20.301Z,4.50
2023-01-29T11:26:51.874Z,4.50
2023-01-29T11:29:39.425Z,4.50
2023-01-29T11:32:36.454Z,4.60
2023-01-29T11:35:12.550Z,4.50
2023-01-29T11:37:41.645Z,4.50
2023-01-29T11:40:23.443Z,4.50
2023-01-29T11:42:53.637Z,4.40
2023-01-29T11:45:20.499Z,4.40
2023-01-29T11:47:52.782Z,4.50
2023-01-29T11:50:31.969Z,4.40
2023-01-29T11:53:00.108Z,4.50
2023-01-29T11:55:49.502Z,4.50
2023-01-29T11:58:27.320Z,4.50
2023-01-29T12:00:55.569Z,4.50
2023-01-29T12:03:43.711Z,4.50
2023-01-29T12:06:47.199Z,4.50
2023-01-29T12:09:17.544Z,4.50
2023-01-29T12:11:44.437Z,4.50
2023-01-29T12:14:34.177Z,4.50
2023-01-29T12:17:23.938Z,4.60
2023-01-29T12:20:03.811Z,4.60
2023-01-29T12:23:03.233Z,4.60
2023-01-29T12:25:44.469Z,4.60
2023-01-29T12:28:49.477Z,4.70
2023-01-29T12:31:34.970Z,4.60
2023-01-29T12:34:33.893Z,4.60
2023-01-29T12:37:18.629Z,4.60
2023-01-29T12:39:48.702Z,4.60
2023-01-29T12:42:18.450Z,4.60
2023-01-29T12:45:10.986Z,4.60
2023-01-29T12:48:00.561Z,4.60
2023-01-29T12:50:29.750Z,4.50
2023-01-29T12:53:00.762Z,4.50
2023-01-29T12:55:29.766Z,4.50
2023-01-29T12:57:59.441Z,4.40
2023-01-29T13:00:31.722Z,4.40
2023-01-29T13:03:19.411Z,4.40
2023-01-29T13:10:19.252Z,4.40
2023-01-29T13:12:54.317Z,4.40
2023-01-29T13:15:44.402Z,4.40
2023-01-29T13:18:16.835Z,4.40
2023-01-29T13:20:44.703Z,4.40
2023-01-29T13:23:24.344Z,4.40
2023-01-29T13:25:55.109Z,4.30
2023-01-29T13:28:34.265Z,4.30
2023-01-29T13:31:31.503Z,4.30
2023-01-29T13:34:17.614Z,4.30
2023-01-29T13:36:47.746Z,4.40
2023-01-29T13:39:23.629Z,4.30
2023-01-29T13:41:54.531Z,4.30
2023-01-29T13:44:28.201Z,4.30
2023-01-29T13:46:59.913Z,4.30
2023-01-29T13:49:35.663Z,4.30
2023-01-29T13:52:14.996Z,4.30
2023-01-29T13:54:52.753Z,4.30
2023-01-29T13:57:44.691Z,4.30
2023-01-29T14:00:30.869Z,4.20
2023-01-29T14:03:00.819Z,4.20
2023-01-29T14:05:30.809Z,4.10
2023-01-29T14:08:11.113Z,4.10
2023-01-29T14:10:38.374Z,4.10
2023-01-29T14:13:21.218Z,4.10
2023-01-29T14:15:57.180Z,4.10
2023-01-29T14:18:29.125Z,4.10
2023-01-29T14:21:06.914Z,4.10
2023-01-29T14:23:58.013Z,4.10
2023-01-29T14:26:31.368Z,4.10
2023-01-29T14:29:18.788Z,4.00
2023-01-29T14:31:54.893Z,4.00
2023-01-29T14:34:33.050Z,4.00
2023-01-29T14:37:14.463Z,4.00
2023-01-29T14:39:50.041Z,4.00
2023-01-29T14:42:34.309Z,4.00
2023-01-29T14:45:22.381Z,4.00
2023-01-29T14:47:49.247Z,3.90
2023-01-29T14:50:19.065Z,3.90
2023-01-29T14:52:47.020Z,3.90
2023-01-29T14:55:41.928Z,3.90
2023-01-29T14:58:16.157Z,3.80
2023-01-29T15:00:46.123Z,3.80
2023-01-29T15:03:27.845Z,3.80
2023-01-29T15:05:55.666Z,3.80
2023-01-29T15:08:45.487Z,3.80
2023-01-29T15:11:35.858Z,3.80
2023-01-29T15:14:08.622Z,3.70
2023-01-29T15:16:51.652Z,3.70
2023-01-29T15:19:31.867Z,3.70
2023-01-29T15:22:07.984Z,3.70
2023-01-29T15:24:37.987Z,3.70
2023-01-29T15:27:12.501Z,3.60
2023-01-29T15:29:41.277Z,3.50
2023-01-29T15:32:11.027Z,3.50
2023-01-29T15:34:41.857Z,3.50
2023-01-29T15:37:28.150Z,3.50
2023-01-29T15:39:57.968Z,3.50
2023-01-29T15:42:27.826Z,3.50
2023-01-29T15:44:56.807Z,3.40
2023-01-29T15:47:31.316Z,3.40
2023-01-29T15:49:58.356Z,3.40
2023-01-29T15:52:36.149Z,3.40
2023-01-29T15:55:06.027Z,3.40
2023-01-29T15:57:40.631Z,3.40
2023-01-29T16:00:18.316Z,3.40
2023-01-29T16:02:45.242Z,3.40
2023-01-29T16:05:18.356Z,3.40
2023-01-29T16:07:50.818Z,3.40
2023-01-29T16:10:31.709Z,3.40
2023-01-29T16:12:58.930Z,3.40
2023-01-29T16:15:37.912Z,3.40
2023-01-29T16:18:29.599Z,3.30
2023-01-29T16:21:01.766Z,3.30
2023-01-29T16:23:31.473Z,3.30
2023-01-29T16:26:07.932Z,3.30
2023-01-29T16:28:46.923Z,3.40
2023-01-29T16:31:25.652Z,3.40
2023-01-29T16:33:53.542Z,3.30
2023-01-29T16:36:28.926Z,3.40
2023-01-29T16:39:05.299Z,3.30
2023-01-29T16:41:37.506Z,3.30
2023-01-29T16:44:32.346Z,3.30
2023-01-29T16:47:12.935Z,3.30
2023-01-29T16:49:43.260Z,3.30
2023-01-29T16:52:32.032Z,3.30
2023-01-29T16:55:32.751Z,3.30
2023-01-29T16:58:09.771Z,3.30
2023-01-29T17:00:43.342Z,3.30
2023-01-29T17:03:15.047Z,3.30
2023-01-29T17:05:42.270Z,3.30
2023-01-29T17:08:20.198Z,3.30
2023-01-29T17:10:48.658Z,3.30
2023-01-29T17:13:42.914Z,3.30
2023-01-29T17:16:33.811Z,3.30
2023-01-29T17:19:01.322Z,3.30
2023-01-29T17:21:30.828Z,3.30
2023-01-29T17:24:02.403Z,3.30
2023-01-29T17:26:31.297Z,3.30
2023-01-29T17:28:58.285Z,3.30
2023-01-29T17:31:25.498Z,3.30
2023-01-29T17:33:55.038Z,3.30
2023-01-29T17:36:21.933Z,3.30
2023-01-29T17:38:48.846Z,3.20
2023-01-29T17:41:26.904Z,3.20
2023-01-29T17:43:53.793Z,3.30
2023-01-29T17:46:22.654Z,3.30
2023-01-29T17:48:49.686Z,3.20
2023-01-29T17:51:18.336Z,3.20
2023-01-29T17:53:47.095Z,3.20
2023-01-29T17:56:21.347Z,3.20
2023-01-29T17:58:48.186Z,3.30
2023-01-29T18:01:19.764Z,3.20
2023-01-29T18:03:46.732Z,3.20
2023-01-29T18:06:28.400Z,3.20
2023-01-29T18:08:56.469Z,3.20
2023-01-29T18:11:23.491Z,3.20
2023-01-29T18:13:50.528Z,3.20
2023-01-29T18:16:21.902Z,3.20
2023-01-29T18:18:50.274Z,3.20
2023-01-29T18:21:17.244Z,3.20
2023-01-29T18:23:44.497Z,3.10
2023-01-29T18:26:11.998Z,3.20
2023-01-29T18:28:39.260Z,3.10
2023-01-29T18:31:08.994Z,3.20
2023-01-29T18:33:40.428Z,3.10
2023-01-29T18:36:08.102Z,3.20
2023-01-29T18:38:35.066Z,3.20
2023-01-29T18:41:10.540Z,3.20
2023-01-29T18:43:41.688Z,3.20
2023-01-29T18:46:11.285Z,3.20
2023-01-29T18:48:38.763Z,3.10
2023-01-29T18:51:08.942Z,3.10
2023-01-29T18:53:35.801Z,3.10
2023-01-29T18:56:05.366Z,3.10
2023-01-29T18:58:35.782Z,3.10
2023-01-29T19:01:09.967Z,3.10
2023-01-29T19:03:38.277Z,3.20
2023-01-29T19:06:08.521Z,3.20
2023-01-29T19:08:38.645Z,3.20
2023-01-29T19:11:08.207Z,3.10
2023-01-29T19:13:36.649Z,3.20
2023-01-29T19:16:07.429Z,3.20
2023-01-29T19:18:34.305Z,3.20
2023-01-29T19:21:08.906Z,3.10
2023-01-29T19:23:38.224Z,3.10
2023-01-29T19:26:05.454Z,3.10
2023-01-29T19:28:32.536Z,3.10
2023-01-29T19:31:00.122Z,3.10
2023-01-29T19:33:29.363Z,3.10
2023-01-29T19:36:00.885Z,3.10
2023-01-29T19:38:33.356Z,3.10
2023-01-29T19:41:00.614Z,3.10
2023-01-29T19:43:33.183Z,3.10
2023-01-29T19:46:01.322Z,3.10
2023-01-29T19:48:29.133Z,3.20
2023-01-29T19:51:01.624Z,3.20
2023-01-29T19:53:29.141Z,3.10
2023-01-29T19:56:04.364Z,3.10
2023-01-29T19:58:32.036Z,3.10
2023-01-29T20:01:04.469Z,3.10
2023-01-29T20:03:31.737Z,3.10
2023-01-29T20:06:06.032Z,3.20
2023-01-29T20:08:33.638Z,3.10
2023-01-29T20:11:00.903Z,3.10
2023-01-29T20:13:30.508Z,3.10
2023-01-29T20:16:03.922Z,3.10
2023-01-29T20:18:31.578Z,3.10
2023-01-29T20:20:59.680Z,3.10
2023-01-29T20:23:37.788Z,3.10
2023-01-29T20:26:14.334Z,3.10
2023-01-29T20:28:44.944Z,3.10
2023-01-29T20:31:11.895Z,3.10
2023-01-29T20:33:39.606Z,3.10
2023-01-29T20:36:10.048Z,3.10
2023-01-29T20:38:39.494Z,3.00
2023-01-29T20:41:16.979Z,3.00
2023-01-29T20:43:45.540Z,3.00
2023-01-29T20:46:13.011Z,3.00
2023-01-29T20:48:41.925Z,3.00
2023-01-29T20:51:17.928Z,3.00
2023-01-29T20:53:46.883Z,3.00
2023-01-29T20:56:17.604Z,3.00
2023-01-29T20:58:46.695Z,3.10
2023-01-29T21:01:16.318Z,3.00
2023-01-29T21:03:43.367Z,3.10
2023-01-29T21:06:13.437Z,3.00
2023-01-29T21:08:42.797Z,3.00
2023-01-29T21:11:11.984Z,3.00
2023-01-29T21:13:39.042Z,3.00
2023-01-29T21:16:10.745Z,3.00
2023-01-29T21:18:37.774Z,3.00
2023-01-29T21:21:04.971Z,3.00
2023-01-29T21:23:31.912Z,3.00
2023-01-29T21:26:06.229Z,3.00
2023-01-29T21:28:33.492Z,3.00
2023-01-29T21:31:10.034Z,3.00
2023-01-29T21:33:39.620Z,3.10
2023-01-29T21:36:07.391Z,3.10
2023-01-29T21:38:36.529Z,3.10
2023-01-29T21:41:05.973Z,3.10
2023-01-29T21:43:33.431Z,3.10
2023-01-29T21:46:11.263Z,3.00
2023-01-29T21:48:39.367Z,3.00
2023-01-29T21:51:06.773Z,3.00
2023-01-29T21:53:36.662Z,3.00
2023-01-29T21:56:05.066Z,3.00
2023-01-29T21:58:32.335Z,3.00
2023-01-29T22:01:34.539Z,3.00
2023-01-29T22:03:48.348Z,3.00
2023-01-29T22:06:15.568Z,3.00
2023-01-29T22:08:45.057Z,3.00
2023-01-29T22:11:12.127Z,3.00
2023-01-29T22:13:38.937Z,3.00
2023-01-29T22:16:06.474Z,3.00
2023-01-29T22:22:38.134Z,3.00
2023-01-29T22:25:05.656Z,2.90
2023-01-29T22:27:33.843Z,2.90
2023-01-29T22:30:00.778Z,2.90
2023-01-29T22:32:27.971Z,2.90
2023-01-29T22:34:57.319Z,2.90
2023-01-29T22:37:24.199Z,2.90
2023-01-29T22:39:51.033Z,2.90
2023-01-29T22:42:22.884Z,2.90
2023-01-29T22:44:49.808Z,2.90
2023-01-29T22:47:18.847Z,2.90
2023-01-29T22:49:49.040Z,2.90
2023-01-29T22:52:16.013Z,2.90
2023-01-29T22:54:45.993Z,2.90
2023-01-29T22:57:15.575Z,2.90
2023-01-29T22:59:44.687Z,2.80
2023-01-29T23:02:11.476Z,2.80
2023-01-29T23:04:40.545Z,2.80
2023-01-29T23:07:07.384Z,2.90
2023-01-29T23:09:34.272Z,2.90
2023-01-29T23:12:01.384Z,2.90
2023-01-29T23:14:28.320Z,2.90
2023-01-29T23:16:55.367Z,2.80
2023-01-29T23:19:22.648Z,2.80
2023-01-29T23:21:51.771Z,2.80
2023-01-29T23:24:18.759Z,2.80
2023-01-29T23:27:04.027Z,2.90
2023-01-29T23:29:30.918Z,2.90
2023-01-29T23:32:00.082Z,2.80
2023-01-29T23:34:26.938Z,2.80
2023-01-29T23:36:53.711Z,2.80
2023-01-29T23:39:20.845Z,2.90
2023-01-29T23:41:47.746Z,2.80
2023-01-29T23:44:14.626Z,2.90
2023-01-29T23:46:41.434Z,2.90
2023-01-29T23:49:08.623Z,2.90
2023-01-29T23:51:35.473Z,2.80
2023-01-29T23:54:05.062Z,2.80
2023-01-29T23:56:34.498Z,2.90
2023-01-29T23:59:01.411Z,2.80
